Trans Oceanic — 3FOD2 — position and weather

sailwx.info

Track history (hours):
 
Tides and Currents Weather Stations Pressure Air Temp Water Temp Dewpoint Dewpoint Depression Visibility Wind Speed Wind Dir Waves Ship Positions

Trans Oceanic

Last reported at 2017-Oct-31 13:47 UTC. Time now 2017-Nov-24 07:12 UTC.
Position N 29°25' W 094°50'.
Warning: this ship's position is 23 days out of date.

Length 190 m; draft 11.9 m.

Type: Cargo ship. MMSI: 373489000.

Date/timePositionNaut miles runAvg speedWind from/ knotsBaromVisibWave heightAir tempDewpointWater temp
2017-Oct-31 13:47N 29°25' W 094°50'510.5
2017-Oct-31 13:18N 29°30' W 094°52'310.0
2017-Oct-31 13:01N 29°32' W 094°54'5 9.7
2017-Oct-31 12:31N 29°36' W 094°57'5 9.5
2017-Oct-31 12:00N 29°41' W 094°59'4 7.3
2017-Oct-31 11:31N 29°44' W 095°01'4 7.4
2017-Oct-31 11:00N 29°46' W 095°05'2 4.6
2017-Oct-31 10:30N 29°44' W 095°07'0 0.2
2017-Oct-31 10:00N 29°44' W 095°07'0 0.0
2017-Oct-31 09:17N 29°44' W 095°07'0 0.0
2017-Oct-31 08:56N 29°44' W 095°07'0 0.0
2017-Oct-31 08:29N 29°44' W 095°07'0 0.0
2017-Oct-31 07:56N 29°44' W 095°07'0 0.0
2017-Oct-31 07:17N 29°44' W 095°07'0 0.0
2017-Oct-31 06:59N 29°44' W 095°07'0 0.0
2017-Oct-31 06:29N 29°44' W 095°07'0 0.0
2017-Oct-31 05:56N 29°44' W 095°07'0 0.0
2017-Oct-31 05:20N 29°44' W 095°07'0 0.0
2017-Oct-31 04:59N 29°44' W 095°07'0 0.0
2017-Oct-31 04:29N 29°44' W 095°07'0 0.0
2017-Oct-31 03:59N 29°44' W 095°07'0 0.0
2017-Oct-31 03:29N 29°44' W 095°07'0 0.0
2017-Oct-31 02:59N 29°44' W 095°07'0 0.0
2017-Oct-31 02:29N 29°44' W 095°07'0 0.0
2017-Oct-31 01:59N 29°44' W 095°07'0 0.0
2017-Oct-31 01:29N 29°44' W 095°07'0 0.0
2017-Oct-31 00:59N 29°44' W 095°07'0 0.0
2017-Oct-31 00:29N 29°44' W 095°07'0 0.0
2017-Oct-30 23:59N 29°44' W 095°07'0 0.0
2017-Oct-30 23:29N 29°44' W 095°07'0 0.0
2017-Oct-30 22:59N 29°44' W 095°07'0 0.0
2017-Oct-30 22:26N 29°44' W 095°07'0 0.0
2017-Oct-30 21:59N 29°44' W 095°07'0 0.0
2017-Oct-30 21:29N 29°44' W 095°07'0 0.0
2017-Oct-30 20:59N 29°44' W 095°07'0 0.0
2017-Oct-30 20:29N 29°44' W 095°07'0 0.0
2017-Oct-30 19:59N 29°44' W 095°07'0 0.0
2017-Oct-30 19:29N 29°44' W 095°07'0 0.0
2017-Oct-30 18:59N 29°44' W 095°07'0 0.0
2017-Oct-30 18:29N 29°44' W 095°07'0 0.0
2017-Oct-30 17:59N 29°44' W 095°07'0 0.0
2017-Oct-30 17:29N 29°44' W 095°07'0 0.0
2017-Oct-30 16:59N 29°44' W 095°07'0 0.0
2017-Oct-30 16:26N 29°44' W 095°07'0 0.0
2017-Oct-30 15:59N 29°44' W 095°07'0 0.0
2017-Oct-30 15:29N 29°44' W 095°07'0 0.0
2017-Oct-30 14:59N 29°44' W 095°07'0 0.0
2017-Oct-30 14:29N 29°44' W 095°07'0 0.0
2017-Oct-30 13:29N 29°44' W 095°07'0 0.0
2017-Oct-30 12:59N 29°44' W 095°07'0 0.0
2017-Oct-30 12:29N 29°44' W 095°07'0 0.0
2017-Oct-30 11:59N 29°44' W 095°07'0 0.0
2017-Oct-30 11:29N 29°44' W 095°07'0 0.0
2017-Oct-30 10:59N 29°44' W 095°07'0 0.0
2017-Oct-30 10:29N 29°44' W 095°07'0 0.0
2017-Oct-30 09:59N 29°44' W 095°07'0 0.0
2017-Oct-30 09:29N 29°44' W 095°07'0 0.0
2017-Oct-30 08:59N 29°44' W 095°07'0 0.0
2017-Oct-30 08:29N 29°44' W 095°07'0 0.0
2017-Oct-30 07:53N 29°44' W 095°07'0 0.0
2017-Oct-30 07:29N 29°44' W 095°07'0 0.0
2017-Oct-30 06:59N 29°44' W 095°07'0 0.0
2017-Oct-30 06:29N 29°44' W 095°07'0 0.0
2017-Oct-30 05:59N 29°44' W 095°07'0 0.0
2017-Oct-30 05:29N 29°44' W 095°07'0 0.0
2017-Oct-30 04:59N 29°44' W 095°07'0 0.0
2017-Oct-30 04:29N 29°44' W 095°07'0 0.0
2017-Oct-30 03:59N 29°44' W 095°07'0 0.0
2017-Oct-30 03:29N 29°44' W 095°07'0 0.0
2017-Oct-30 02:59N 29°44' W 095°07'0 0.0
2017-Oct-30 02:29N 29°44' W 095°07'0 0.0
2017-Oct-30 01:59N 29°44' W 095°07'0 0.0
2017-Oct-30 01:29N 29°44' W 095°07'0 0.0
2017-Oct-30 00:59N 29°44' W 095°07'0 0.0
2017-Oct-30 00:29N 29°44' W 095°07'0 0.0
2017-Oct-29 23:59N 29°44' W 095°07'0 0.0
2017-Oct-29 23:29N 29°44' W 095°07'0 0.0
2017-Oct-29 22:59N 29°44' W 095°07'0 0.0
2017-Oct-29 22:29N 29°44' W 095°07'0 0.0
2017-Oct-29 21:59N 29°44' W 095°07'0 0.0
2017-Oct-29 21:29N 29°44' W 095°07'0 0.0
2017-Oct-29 20:59N 29°44' W 095°07'0 0.0
2017-Oct-29 20:29N 29°44' W 095°07'0 0.0
2017-Oct-29 19:59N 29°44' W 095°07'0 0.0
2017-Oct-29 19:29N 29°44' W 095°07'0 0.0
2017-Oct-29 18:59N 29°44' W 095°07'0 0.0
2017-Oct-29 18:29N 29°44' W 095°07'0 0.0
2017-Oct-29 17:59N 29°44' W 095°07'0 0.0
2017-Oct-29 17:29N 29°44' W 095°07'0 0.0
2017-Oct-29 16:59N 29°44' W 095°07'0 0.0
2017-Oct-29 16:29N 29°44' W 095°07'0 0.0
2017-Oct-29 15:59N 29°44' W 095°07'0 0.0
2017-Oct-29 15:29N 29°44' W 095°07'0 0.0
2017-Oct-29 14:59N 29°44' W 095°07'0 0.0
2017-Oct-29 14:29N 29°44' W 095°07'0 0.0
2017-Oct-29 13:59N 29°44' W 095°07'0 0.0
2017-Oct-29 13:29N 29°44' W 095°07'0 0.0
2017-Oct-29 12:59N 29°44' W 095°07'0 0.0
2017-Oct-29 12:29N 29°44' W 095°07'0 0.0
2017-Oct-29 11:59N 29°44' W 095°07'0 0.0
2017-Oct-29 11:26N 29°44' W 095°07'0 0.0
2017-Oct-29 10:59N 29°44' W 095°07'0 0.0
2017-Oct-29 10:29N 29°44' W 095°07'0 0.0
2017-Oct-29 09:59N 29°44' W 095°07'0 0.0
2017-Oct-29 09:29N 29°44' W 095°07'0 0.0
2017-Oct-29 08:59N 29°44' W 095°07'0 0.0
2017-Oct-29 08:29N 29°44' W 095°07'0 0.0
2017-Oct-29 07:59N 29°44' W 095°07'0 0.0
2017-Oct-29 07:29N 29°44' W 095°07'0 0.0
2017-Oct-29 06:59N 29°44' W 095°07'0 0.0
2017-Oct-29 06:29N 29°44' W 095°07'0 0.0
2017-Oct-29 05:59N 29°44' W 095°07'0 0.0
2017-Oct-29 05:29N 29°44' W 095°07'0 0.0
2017-Oct-29 04:59N 29°44' W 095°07'0 0.0
2017-Oct-29 04:29N 29°44' W 095°07'0 0.0
2017-Oct-29 03:59N 29°44' W 095°07'0 0.0
2017-Oct-28 18:59N 29°44' W 095°07'0 0.0
2017-Oct-28 18:29N 29°44' W 095°07'0 0.0
2017-Oct-28 17:59N 29°44' W 095°07'0 0.0
2017-Oct-28 17:29N 29°44' W 095°07'0 0.0
2017-Oct-28 16:59N 29°44' W 095°07'0 0.0
2017-Oct-28 16:29N 29°44' W 095°07'0 0.0
2017-Oct-28 15:59N 29°44' W 095°07'0 0.0
2017-Oct-28 15:29N 29°44' W 095°07'0 0.0
2017-Oct-28 14:59N 29°44' W 095°07'0 0.0
2017-Oct-28 14:29N 29°44' W 095°07'0 0.0
2017-Oct-28 13:59N 29°44' W 095°07'0 0.0
2017-Oct-28 13:26N 29°44' W 095°07'0 0.0
2017-Oct-28 12:59N 29°44' W 095°07'0 0.0
2017-Oct-28 12:29N 29°44' W 095°07'0 0.0
2017-Oct-28 11:59N 29°44' W 095°07'0 0.0
2017-Oct-28 11:29N 29°44' W 095°07'0 0.0
2017-Oct-28 10:56N 29°44' W 095°07'0 0.0
2017-Oct-28 10:29N 29°44' W 095°07'0 0.0
2017-Oct-28 09:59N 29°44' W 095°07'0 0.0
2017-Oct-28 09:29N 29°44' W 095°07'0 0.0
2017-Oct-28 08:59N 29°44' W 095°07'0 0.0
2017-Oct-28 08:26N 29°44' W 095°07'0 0.0
2017-Oct-28 07:59N 29°44' W 095°07'0 0.0
2017-Oct-28 07:29N 29°44' W 095°07'0 0.0
2017-Oct-28 06:59N 29°44' W 095°07'0 0.0
2017-Oct-28 06:29N 29°44' W 095°07'0 0.0
2017-Oct-28 05:59N 29°44' W 095°07'0 0.0
2017-Oct-28 05:29N 29°44' W 095°07'0 0.0
2017-Oct-28 04:59N 29°44' W 095°07'0 0.0
2017-Oct-28 04:29N 29°44' W 095°07'0 0.0
2017-Oct-28 03:59N 29°44' W 095°07'0 0.0
2017-Oct-28 03:29N 29°44' W 095°07'0 0.0
2017-Oct-28 02:59N 29°44' W 095°07'0 0.0
2017-Oct-28 02:26N 29°44' W 095°07'0 0.0
2017-Oct-28 01:59N 29°44' W 095°07'0 0.0
2017-Oct-28 01:29N 29°44' W 095°07'0 0.0
2017-Oct-28 00:59N 29°44' W 095°07'0 0.0
2017-Oct-28 00:29N 29°44' W 095°07'0 0.0
2017-Oct-27 23:59N 29°44' W 095°07'0 0.0
2017-Oct-27 23:29N 29°44' W 095°07'0 0.0
2017-Oct-27 22:59N 29°44' W 095°07'0 0.0
2017-Oct-27 22:29N 29°44' W 095°07'0 0.0
2017-Oct-27 21:59N 29°44' W 095°07'0 0.0
2017-Oct-27 21:29N 29°44' W 095°07'0 0.0
2017-Oct-27 20:59N 29°44' W 095°07'0 0.0
2017-Oct-27 20:29N 29°44' W 095°07'0 0.0
2017-Oct-27 19:59N 29°44' W 095°07'0 0.0
2017-Oct-27 19:29N 29°44' W 095°07'0 0.0
2017-Oct-27 18:59N 29°44' W 095°07'0 0.0
2017-Oct-27 18:29N 29°44' W 095°07'0 0.0
2017-Oct-27 17:59N 29°44' W 095°07'0 0.0
2017-Oct-27 17:29N 29°44' W 095°07'0 0.0
2017-Oct-27 16:59N 29°44' W 095°07'0 0.0
2017-Oct-27 16:29N 29°44' W 095°07'0 0.0
2017-Oct-27 15:50N 29°44' W 095°07'0 0.0
2017-Oct-27 15:29N 29°44' W 095°07'0 0.0
2017-Oct-27 14:59N 29°44' W 095°07'0 0.0
2017-Oct-27 14:29N 29°44' W 095°07'0 0.0
2017-Oct-27 13:59N 29°44' W 095°07'0 0.0
2017-Oct-27 13:29N 29°44' W 095°07'0 0.0
2017-Oct-27 12:59N 29°44' W 095°07'0 0.0
2017-Oct-27 12:29N 29°44' W 095°07'0 0.0
2017-Oct-27 11:59N 29°44' W 095°07'0 0.0
2017-Oct-27 11:29N 29°44' W 095°07'0 0.0
2017-Oct-27 10:59N 29°44' W 095°07'0 0.0
2017-Oct-27 10:29N 29°44' W 095°07'0 0.0
2017-Oct-27 09:59N 29°44' W 095°07'0 0.0
2017-Oct-27 09:29N 29°44' W 095°07'0 0.0
2017-Oct-27 08:59N 29°44' W 095°07'0 0.0
2017-Oct-27 08:29N 29°44' W 095°07'0 0.0
2017-Oct-27 07:59N 29°44' W 095°07'0 0.0
2017-Oct-27 07:29N 29°44' W 095°07'0 0.0
2017-Oct-27 06:59N 29°44' W 095°07'0 0.0
2017-Oct-27 06:29N 29°44' W 095°07'0 0.0
2017-Oct-27 05:59N 29°44' W 095°07'0 0.0
2017-Oct-27 05:29N 29°44' W 095°07'0 0.0
2017-Oct-27 04:56N 29°44' W 095°07'0 0.0
2017-Oct-27 04:29N 29°44' W 095°07'0 0.0
2017-Oct-27 03:59N 29°44' W 095°07'0 0.0
2017-Oct-27 03:29N 29°44' W 095°07'0 0.0
2017-Oct-27 02:59N 29°44' W 095°07'0 0.0
2017-Oct-27 02:29N 29°44' W 095°07'0 0.0
2017-Oct-27 01:53N 29°44' W 095°07'0 0.0
2017-Oct-27 01:26N 29°44' W 095°07'0 0.0
2017-Oct-27 00:59N 29°44' W 095°07'0 0.0
2017-Oct-27 00:29N 29°44' W 095°07'0 0.0
2017-Oct-26 23:59N 29°44' W 095°07'0 0.0
2017-Oct-26 23:29N 29°44' W 095°07'0 0.0
2017-Oct-26 23:00N 29°44' W 095°07'0 0.2
2017-Oct-26 22:30N 29°44' W 095°07'1 1.3
2017-Oct-26 22:00N 29°45' W 095°06'2 4.8
2017-Oct-26 21:30N 29°44' W 095°04'4 7.1
2017-Oct-26 21:00N 29°42' W 095°00'510.1
2017-Oct-26 20:30N 29°38' W 094°58'611.8
2017-Oct-26 20:00N 29°33' W 094°54'612.1
2017-Oct-26 19:30N 29°27' W 094°51'611.9
2017-Oct-26 19:00N 29°22' W 094°48'  
2017-Oct-22 19:02N 29°20' W 094°35'0 0.4
2017-Oct-22 18:59N 29°20' W 094°35'  
Track history (hours):
 
Tides and Currents Weather Stations Pressure Air Temp Water Temp Dewpoint Dewpoint Depression Visibility Wind Speed Wind Dir Waves Ship Positions

Trans Oceanic

Last reported at 2017-Oct-31 13:47 UTC. Time now 2017-Nov-24 07:12 UTC.
Position N 29°25' W 094°50'.
Warning: this ship's position is 23 days out of date.

Length 190 m; draft 11.9 m.

Type: Cargo ship. MMSI: 373489000.

Date/timePositionNaut miles runAvg speedWind from/ knotsBaromVisibWave heightAir tempDewpointWater temp
2017-Oct-31 13:47N 29°25' W 094°50'510.5
2017-Oct-31 13:18N 29°30' W 094°52'310.0
2017-Oct-31 13:01N 29°32' W 094°54'5 9.7
2017-Oct-31 12:31N 29°36' W 094°57'5 9.5
2017-Oct-31 12:00N 29°41' W 094°59'4 7.3
2017-Oct-31 11:31N 29°44' W 095°01'4 7.4
2017-Oct-31 11:00N 29°46' W 095°05'2 4.6
2017-Oct-31 10:30N 29°44' W 095°07'0 0.2
2017-Oct-31 10:00N 29°44' W 095°07'0 0.0
2017-Oct-31 09:17N 29°44' W 095°07'0 0.0
2017-Oct-31 08:56N 29°44' W 095°07'0 0.0
2017-Oct-31 08:29N 29°44' W 095°07'0 0.0
2017-Oct-31 07:56N 29°44' W 095°07'0 0.0
2017-Oct-31 07:17N 29°44' W 095°07'0 0.0
2017-Oct-31 06:59N 29°44' W 095°07'0 0.0
2017-Oct-31 06:29N 29°44' W 095°07'0 0.0
2017-Oct-31 05:56N 29°44' W 095°07'0 0.0
2017-Oct-31 05:20N 29°44' W 095°07'0 0.0
2017-Oct-31 04:59N 29°44' W 095°07'0 0.0
2017-Oct-31 04:29N 29°44' W 095°07'0 0.0
2017-Oct-31 03:59N 29°44' W 095°07'0 0.0
2017-Oct-31 03:29N 29°44' W 095°07'0 0.0
2017-Oct-31 02:59N 29°44' W 095°07'0 0.0
2017-Oct-31 02:29N 29°44' W 095°07'0 0.0
2017-Oct-31 01:59N 29°44' W 095°07'0 0.0
2017-Oct-31 01:29N 29°44' W 095°07'0 0.0
2017-Oct-31 00:59N 29°44' W 095°07'0 0.0
2017-Oct-31 00:29N 29°44' W 095°07'0 0.0
2017-Oct-30 23:59N 29°44' W 095°07'0 0.0
2017-Oct-30 23:29N 29°44' W 095°07'0 0.0
2017-Oct-30 22:59N 29°44' W 095°07'0 0.0
2017-Oct-30 22:26N 29°44' W 095°07'0 0.0
2017-Oct-30 21:59N 29°44' W 095°07'0 0.0
2017-Oct-30 21:29N 29°44' W 095°07'0 0.0
2017-Oct-30 20:59N 29°44' W 095°07'0 0.0
2017-Oct-30 20:29N 29°44' W 095°07'0 0.0
2017-Oct-30 19:59N 29°44' W 095°07'0 0.0
2017-Oct-30 19:29N 29°44' W 095°07'0 0.0
2017-Oct-30 18:59N 29°44' W 095°07'0 0.0
2017-Oct-30 18:29N 29°44' W 095°07'0 0.0
2017-Oct-30 17:59N 29°44' W 095°07'0 0.0
2017-Oct-30 17:29N 29°44' W 095°07'0 0.0
2017-Oct-30 16:59N 29°44' W 095°07'0 0.0
2017-Oct-30 16:26N 29°44' W 095°07'0 0.0
2017-Oct-30 15:59N 29°44' W 095°07'0 0.0
2017-Oct-30 15:29N 29°44' W 095°07'0 0.0
2017-Oct-30 14:59N 29°44' W 095°07'0 0.0
2017-Oct-30 14:29N 29°44' W 095°07'0 0.0
2017-Oct-30 13:29N 29°44' W 095°07'0 0.0
2017-Oct-30 12:59N 29°44' W 095°07'0 0.0
2017-Oct-30 12:29N 29°44' W 095°07'0 0.0
2017-Oct-30 11:59N 29°44' W 095°07'0 0.0
2017-Oct-30 11:29N 29°44' W 095°07'0 0.0
2017-Oct-30 10:59N 29°44' W 095°07'0 0.0
2017-Oct-30 10:29N 29°44' W 095°07'0 0.0
2017-Oct-30 09:59N 29°44' W 095°07'0 0.0
2017-Oct-30 09:29N 29°44' W 095°07'0 0.0
2017-Oct-30 08:59N 29°44' W 095°07'0 0.0
2017-Oct-30 08:29N 29°44' W 095°07'0 0.0
2017-Oct-30 07:53N 29°44' W 095°07'0 0.0
2017-Oct-30 07:29N 29°44' W 095°07'0 0.0
2017-Oct-30 06:59N 29°44' W 095°07'0 0.0
2017-Oct-30 06:29N 29°44' W 095°07'0 0.0
2017-Oct-30 05:59N 29°44' W 095°07'0 0.0
2017-Oct-30 05:29N 29°44' W 095°07'0 0.0
2017-Oct-30 04:59N 29°44' W 095°07'0 0.0
2017-Oct-30 04:29N 29°44' W 095°07'0 0.0
2017-Oct-30 03:59N 29°44' W 095°07'0 0.0
2017-Oct-30 03:29N 29°44' W 095°07'0 0.0
2017-Oct-30 02:59N 29°44' W 095°07'0 0.0
2017-Oct-30 02:29N 29°44' W 095°07'0 0.0
2017-Oct-30 01:59N 29°44' W 095°07'0 0.0
2017-Oct-30 01:29N 29°44' W 095°07'0 0.0
2017-Oct-30 00:59N 29°44' W 095°07'0 0.0
2017-Oct-30 00:29N 29°44' W 095°07'0 0.0
2017-Oct-29 23:59N 29°44' W 095°07'0 0.0
2017-Oct-29 23:29N 29°44' W 095°07'0 0.0
2017-Oct-29 22:59N 29°44' W 095°07'0 0.0
2017-Oct-29 22:29N 29°44' W 095°07'0 0.0
2017-Oct-29 21:59N 29°44' W 095°07'0 0.0
2017-Oct-29 21:29N 29°44' W 095°07'0 0.0
2017-Oct-29 20:59N 29°44' W 095°07'0 0.0
2017-Oct-29 20:29N 29°44' W 095°07'0 0.0
2017-Oct-29 19:59N 29°44' W 095°07'0 0.0
2017-Oct-29 19:29N 29°44' W 095°07'0 0.0
2017-Oct-29 18:59N 29°44' W 095°07'0 0.0
2017-Oct-29 18:29N 29°44' W 095°07'0 0.0
2017-Oct-29 17:59N 29°44' W 095°07'0 0.0
2017-Oct-29 17:29N 29°44' W 095°07'0 0.0
2017-Oct-29 16:59N 29°44' W 095°07'0 0.0
2017-Oct-29 16:29N 29°44' W 095°07'0 0.0
2017-Oct-29 15:59N 29°44' W 095°07'0 0.0
2017-Oct-29 15:29N 29°44' W 095°07'0 0.0
2017-Oct-29 14:59N 29°44' W 095°07'0 0.0
2017-Oct-29 14:29N 29°44' W 095°07'0 0.0
2017-Oct-29 13:59N 29°44' W 095°07'0 0.0
2017-Oct-29 13:29N 29°44' W 095°07'0 0.0
2017-Oct-29 12:59N 29°44' W 095°07'0 0.0
2017-Oct-29 12:29N 29°44' W 095°07'0 0.0
2017-Oct-29 11:59N 29°44' W 095°07'0 0.0
2017-Oct-29 11:26N 29°44' W 095°07'0 0.0
2017-Oct-29 10:59N 29°44' W 095°07'0 0.0
2017-Oct-29 10:29N 29°44' W 095°07'0 0.0
2017-Oct-29 09:59N 29°44' W 095°07'0 0.0
2017-Oct-29 09:29N 29°44' W 095°07'0 0.0
2017-Oct-29 08:59N 29°44' W 095°07'0 0.0
2017-Oct-29 08:29N 29°44' W 095°07'0 0.0
2017-Oct-29 07:59N 29°44' W 095°07'0 0.0
2017-Oct-29 07:29N 29°44' W 095°07'0 0.0
2017-Oct-29 06:59N 29°44' W 095°07'0 0.0
2017-Oct-29 06:29N 29°44' W 095°07'0 0.0
2017-Oct-29 05:59N 29°44' W 095°07'0 0.0
2017-Oct-29 05:29N 29°44' W 095°07'0 0.0
2017-Oct-29 04:59N 29°44' W 095°07'0 0.0
2017-Oct-29 04:29N 29°44' W 095°07'0 0.0
2017-Oct-29 03:59N 29°44' W 095°07'0 0.0
2017-Oct-28 18:59N 29°44' W 095°07'0 0.0
2017-Oct-28 18:29N 29°44' W 095°07'0 0.0
2017-Oct-28 17:59N 29°44' W 095°07'0 0.0
2017-Oct-28 17:29N 29°44' W 095°07'0 0.0
2017-Oct-28 16:59N 29°44' W 095°07'0 0.0
2017-Oct-28 16:29N 29°44' W 095°07'0 0.0
2017-Oct-28 15:59N 29°44' W 095°07'0 0.0
2017-Oct-28 15:29N 29°44' W 095°07'0 0.0
2017-Oct-28 14:59N 29°44' W 095°07'0 0.0
2017-Oct-28 14:29N 29°44' W 095°07'0 0.0
2017-Oct-28 13:59N 29°44' W 095°07'0 0.0
2017-Oct-28 13:26N 29°44' W 095°07'0 0.0
2017-Oct-28 12:59N 29°44' W 095°07'0 0.0
2017-Oct-28 12:29N 29°44' W 095°07'0 0.0
2017-Oct-28 11:59N 29°44' W 095°07'0 0.0
2017-Oct-28 11:29N 29°44' W 095°07'0 0.0
2017-Oct-28 10:56N 29°44' W 095°07'0 0.0
2017-Oct-28 10:29N 29°44' W 095°07'0 0.0
2017-Oct-28 09:59N 29°44' W 095°07'0 0.0
2017-Oct-28 09:29N 29°44' W 095°07'0 0.0
2017-Oct-28 08:59N 29°44' W 095°07'0 0.0
2017-Oct-28 08:26N 29°44' W 095°07'0 0.0
2017-Oct-28 07:59N 29°44' W 095°07'0 0.0
2017-Oct-28 07:29N 29°44' W 095°07'0 0.0
2017-Oct-28 06:59N 29°44' W 095°07'0 0.0
2017-Oct-28 06:29N 29°44' W 095°07'0 0.0
2017-Oct-28 05:59N 29°44' W 095°07'0 0.0
2017-Oct-28 05:29N 29°44' W 095°07'0 0.0
2017-Oct-28 04:59N 29°44' W 095°07'0 0.0
2017-Oct-28 04:29N 29°44' W 095°07'0 0.0
2017-Oct-28 03:59N 29°44' W 095°07'0 0.0
2017-Oct-28 03:29N 29°44' W 095°07'0 0.0
2017-Oct-28 02:59N 29°44' W 095°07'0 0.0
2017-Oct-28 02:26N 29°44' W 095°07'0 0.0
2017-Oct-28 01:59N 29°44' W 095°07'0 0.0
2017-Oct-28 01:29N 29°44' W 095°07'0 0.0
2017-Oct-28 00:59N 29°44' W 095°07'0 0.0
2017-Oct-28 00:29N 29°44' W 095°07'0 0.0
2017-Oct-27 23:59N 29°44' W 095°07'0 0.0
2017-Oct-27 23:29N 29°44' W 095°07'0 0.0
2017-Oct-27 22:59N 29°44' W 095°07'0 0.0
2017-Oct-27 22:29N 29°44' W 095°07'0 0.0
2017-Oct-27 21:59N 29°44' W 095°07'0 0.0
2017-Oct-27 21:29N 29°44' W 095°07'0 0.0
2017-Oct-27 20:59N 29°44' W 095°07'0 0.0
2017-Oct-27 20:29N 29°44' W 095°07'0 0.0
2017-Oct-27 19:59N 29°44' W 095°07'0 0.0
2017-Oct-27 19:29N 29°44' W 095°07'0 0.0
2017-Oct-27 18:59N 29°44' W 095°07'0 0.0
2017-Oct-27 18:29N 29°44' W 095°07'0 0.0
2017-Oct-27 17:59N 29°44' W 095°07'0 0.0
2017-Oct-27 17:29N 29°44' W 095°07'0 0.0
2017-Oct-27 16:59N 29°44' W 095°07'0 0.0
2017-Oct-27 16:29N 29°44' W 095°07'0 0.0
2017-Oct-27 15:50N 29°44' W 095°07'0 0.0
2017-Oct-27 15:29N 29°44' W 095°07'0 0.0
2017-Oct-27 14:59N 29°44' W 095°07'0 0.0
2017-Oct-27 14:29N 29°44' W 095°07'0 0.0
2017-Oct-27 13:59N 29°44' W 095°07'0 0.0
2017-Oct-27 13:29N 29°44' W 095°07'0 0.0
2017-Oct-27 12:59N 29°44' W 095°07'0 0.0
2017-Oct-27 12:29N 29°44' W 095°07'0 0.0
2017-Oct-27 11:59N 29°44' W 095°07'0 0.0
2017-Oct-27 11:29N 29°44' W 095°07'0 0.0
2017-Oct-27 10:59N 29°44' W 095°07'0 0.0
2017-Oct-27 10:29N 29°44' W 095°07'0 0.0
2017-Oct-27 09:59N 29°44' W 095°07'0 0.0
2017-Oct-27 09:29N 29°44' W 095°07'0 0.0
2017-Oct-27 08:59N 29°44' W 095°07'0 0.0
2017-Oct-27 08:29N 29°44' W 095°07'0 0.0
2017-Oct-27 07:59N 29°44' W 095°07'0 0.0
2017-Oct-27 07:29N 29°44' W 095°07'0 0.0
2017-Oct-27 06:59N 29°44' W 095°07'0 0.0
2017-Oct-27 06:29N 29°44' W 095°07'0 0.0
2017-Oct-27 05:59N 29°44' W 095°07'0 0.0
2017-Oct-27 05:29N 29°44' W 095°07'0 0.0
2017-Oct-27 04:56N 29°44' W 095°07'0 0.0
2017-Oct-27 04:29N 29°44' W 095°07'0 0.0
2017-Oct-27 03:59N 29°44' W 095°07'0 0.0
2017-Oct-27 03:29N 29°44' W 095°07'0 0.0
2017-Oct-27 02:59N 29°44' W 095°07'0 0.0
2017-Oct-27 02:29N 29°44' W 095°07'0 0.0
2017-Oct-27 01:53N 29°44' W 095°07'0 0.0
2017-Oct-27 01:26N 29°44' W 095°07'0 0.0
2017-Oct-27 00:59N 29°44' W 095°07'0 0.0
2017-Oct-27 00:29N 29°44' W 095°07'0 0.0
2017-Oct-26 23:59N 29°44' W 095°07'0 0.0
2017-Oct-26 23:29N 29°44' W 095°07'0 0.0
2017-Oct-26 23:00N 29°44' W 095°07'0 0.2
2017-Oct-26 22:30N 29°44' W 095°07'1 1.3
2017-Oct-26 22:00N 29°45' W 095°06'2 4.8
2017-Oct-26 21:30N 29°44' W 095°04'4 7.1
2017-Oct-26 21:00N 29°42' W 095°00'510.1
2017-Oct-26 20:30N 29°38' W 094°58'611.8
2017-Oct-26 20:00N 29°33' W 094°54'612.1
2017-Oct-26 19:30N 29°27' W 094°51'611.9
2017-Oct-26 19:00N 29°22' W 094°48'  
2017-Oct-22 19:02N 29°20' W 094°35'0 0.4
2017-Oct-22 18:59N 29°20' W 094°35'  

Dump ship's entire track history